Terminal Aerodrome Forecast
Issued by NWS

Home | Current Version | Previous Version | Text Only | Print | Product List | Glossary On
Versions: 1 2 3 4 5 6 7 8 9 10 11 12 13 14
000
FTUS44 KMAF 251800 AAA
TAFINK
TAF AMD
KINK 251847Z 2519/2618 23008KT P6SM SKC
     FM260000 26006KT P6SM SKC
     FM261400 32004KT P6SM SKC=

USA.gov is the U.S. government's official web portal to all federal, state and local government web resources and services.